-5.07C
облачно с прояснениями
облачно с прояснениями
Дата и времяТемператураДавление, мм рт.ст.Влажность, %Осадки
МинимумМаксимум
14.04.2024 23:00-6.28C-5.47C76084облачно с прояснениями
15.04.2024 02:00-6.69C-6.15C76186облачно с прояснениями
15.04.2024 05:00-6.35C-6.35C76286облачно с прояснениями
15.04.2024 08:00-1.93C-1.93C76270переменная облачность
15.04.2024 11:002.01C2.01C76261облачно с прояснениями
15.04.2024 14:005.11C5.11C76153переменная облачность
15.04.2024 17:005.95C5.95C76056переменная облачность
15.04.2024 20:000.84C0.84C76078небольшая облачность
15.04.2024 23:00-0.41C-0.41C76081небольшая облачность
16.04.2024 02:00-0.52C-0.52C75979облачно с прояснениями
16.04.2024 05:00-0.39C-0.39C75984облачно с прояснениями
16.04.2024 08:002.93C2.93C75774ясно
16.04.2024 11:008.34C8.34C75666ясно
16.04.2024 14:008.08C8.08C75471пасмурно
16.04.2024 17:006.2C6.2C75386небольшой дождь
16.04.2024 20:005.33C5.33C75194небольшой дождь
16.04.2024 23:005.22C5.22C75096дождь
17.04.2024 02:005.15C5.15C74996небольшой дождь
17.04.2024 05:003.61C3.61C75094пасмурно
17.04.2024 08:004.5C4.5C75089пасмурно
17.04.2024 11:004.04C4.04C75394пасмурно
17.04.2024 14:008.78C8.78C75368небольшой дождь
17.04.2024 17:008.25C8.25C75465пасмурно
17.04.2024 20:006.09C6.09C75379пасмурно
17.04.2024 23:006.9C6.9C75180пасмурно
18.04.2024 02:006.95C6.95C74793небольшой дождь
18.04.2024 05:008.12C8.12C74591небольшой дождь
18.04.2024 08:008.74C8.74C74777пасмурно
18.04.2024 11:008.9C8.9C74964небольшой дождь
18.04.2024 14:0010.12C10.12C75160небольшой дождь
18.04.2024 17:008.27C8.27C75565небольшой дождь
18.04.2024 20:005.9C5.9C75868облачно с прояснениями
18.04.2024 23:004.27C4.27C75975переменная облачность
19.04.2024 02:002.85C2.85C76286облачно с прояснениями
19.04.2024 05:001.04C1.04C76393облачно с прояснениями
19.04.2024 08:003.51C3.51C76477пасмурно
19.04.2024 11:007.65C7.65C76560пасмурно
19.04.2024 14:0011.09C11.09C76447облачно с прояснениями
19.04.2024 17:0011.29C11.29C76253пасмурно
19.04.2024 20:008.91C8.91C76268пасмурно
Дата и время наблюдения: 14.04.2024 20:06:12